Time;durP1;ratioP1;P1;durP2;ratioP2;P2;SDS_P1;SDS_P2;PMS_P1;PMS_P2;Temp;Humidity;BMP_temperature;BMP_pressure;BME280_temperature;BME280_humidity;BME280_pressure;Samples;Min_cycle;Max_cycle;Signal;HPM_P1;HPM_P2
2022/11/25 00:01:13;;;;;;;39.17;10.73;;;2.50;99.90;;;;;;5025553;22;20228;-75
2022/11/25 00:03:40;;;;;;;57.93;10.83;;;2.50;99.90;;;;;;4950615;28;20186;-75
2022/11/25 00:06:09;;;;;;;81.00;11.37;;;2.50;99.90;;;;;;4950608;28;20227;-75
2022/11/25 00:08:36;;;;;;;31.93;10.37;;;2.50;99.90;;;;;;4961645;28;20243;-75
2022/11/25 00:11:03;;;;;;;36.47;10.17;;;2.60;99.90;;;;;;5000569;28;20615;-75
2022/11/25 00:13:30;;;;;;;48.57;12.27;;;2.60;99.90;;;;;;5049987;28;20188;-75
2022/11/25 00:15:59;;;;;;;51.07;10.80;;;2.70;99.90;;;;;;5049852;28;20201;-76
2022/11/25 00:18:25;;;;;;;54.30;11.27;;;2.70;99.90;;;;;;5040405;28;20232;-75
2022/11/25 00:20:51;;;;;;;48.97;11.10;;;2.70;99.90;;;;;;5031021;28;20223;-75
2022/11/25 00:23:16;;;;;;;56.20;11.27;;;2.60;99.90;;;;;;5030238;28;20628;-74
2022/11/25 00:25:42;;;;;;;64.50;10.90;;;2.60;99.90;;;;;;5030975;28;20639;-74
2022/11/25 00:28:08;;;;;;;37.53;11.07;;;2.50;99.90;;;;;;5036717;28;20205;-75
2022/11/25 00:30:34;;;;;;;65.47;10.67;;;2.50;99.90;;;;;;5049912;28;20229;-75
2022/11/25 00:32:59;;;;;;;112.07;11.23;;;2.50;99.90;;;;;;5049949;28;20222;-75
2022/11/25 00:35:25;;;;;;;120.57;12.57;;;2.40;99.90;;;;;;5050989;28;20181;-76
2022/11/25 00:37:51;;;;;;;69.97;11.03;;;2.40;99.90;;;;;;5044156;28;20205;-74
2022/11/25 00:40:17;;;;;;;95.17;11.50;;;2.40;99.90;;;;;;5065815;28;20204;-75
2022/11/25 00:45:27;;;;;;;112.70;12.30;;;2.40;99.90;;;;;;5071116;28;20355;-75
2022/11/25 00:47:53;;;;;;;91.47;12.10;;;2.30;99.90;;;;;;5063415;28;20276;-74
2022/11/25 00:50:19;;;;;;;93.70;12.37;;;2.30;99.90;;;;;;5050851;28;20273;-74
2022/11/25 00:52:44;;;;;;;68.93;11.57;;;2.30;99.90;;;;;;5051022;28;20193;-75
2022/11/25 00:55:10;;;;;;;120.20;13.67;;;2.30;99.90;;;;;;5050810;28;20189;-75
2022/11/25 00:57:36;;;;;;;73.70;11.13;;;2.30;99.90;;;;;;5048842;28;20174;-74
2022/11/25 01:00:04;;;;;;;49.70;11.53;;;2.30;99.90;;;;;;5049531;28;20920;-74
2022/11/25 01:02:30;;;;;;;24.17;16.43;;;2.30;99.90;;;;;;5050863;28;20180;-74
2022/11/25 01:04:55;;;;;;;53.47;10.50;;;2.20;99.90;;;;;;5049559;28;20183;-75
2022/11/25 01:07:21;;;;;;;29.50;10.93;;;2.20;99.90;;;;;;5049927;28;20173;-74
2022/11/25 01:09:48;;;;;;;17.07;11.07;;;2.20;99.90;;;;;;5048230;28;20661;-74
2022/11/25 01:12:14;;;;;;;41.33;20.83;;;2.20;99.90;;;;;;5050931;28;20213;-74
2022/11/25 01:14:40;;;;;;;18.70;14.17;;;2.10;99.90;;;;;;5050824;28;20187;-74
2022/11/25 01:17:06;;;;;;;53.67;11.53;;;2.10;99.90;;;;;;5048842;28;20171;-74
2022/11/25 01:19:32;;;;;;;42.23;15.27;;;2.10;99.90;;;;;;5032424;28;20280;-74
2022/11/25 01:21:58;;;;;;;41.57;16.10;;;2.10;99.90;;;;;;5029281;28;20205;-74
2022/11/25 01:24:25;;;;;;;43.57;11.63;;;2.20;99.90;;;;;;5031046;28;20187;-74
2022/11/25 01:26:53;;;;;;;50.17;11.70;;;2.20;99.90;;;;;;5030646;28;20184;-74
2022/11/25 01:29:19;;;;;;;15.40;12.90;;;2.20;99.90;;;;;;5044818;28;20838;-74
2022/11/25 01:31:47;;;;;;;14.00;12.57;;;2.10;99.90;;;;;;5046358;28;20193;-76
2022/11/25 01:34:18;;;;;;;20.73;11.57;;;2.00;99.90;;;;;;5040924;28;20178;-74
2022/11/25 01:36:44;;;;;;;17.93;16.73;;;1.90;99.90;;;;;;5032823;28;20182;-74
2022/11/25 01:39:21;;;;;;;17.23;9.87;;;1.80;99.90;;;;;;5034010;28;20179;-75
2022/11/25 01:41:48;;;;;;;16.33;14.63;;;1.70;99.90;;;;;;5034171;28;20249;-75
2022/11/25 01:44:19;;;;;;;16.47;11.83;;;1.70;99.90;;;;;;5037875;28;20182;-76
2022/11/25 01:46:51;;;;;;;27.37;13.70;;;1.70;99.90;;;;;;5037968;28;20232;-73
2022/11/25 01:49:26;;;;;;;13.23;11.33;;;1.80;99.90;;;;;;5053750;28;20221;-74
2022/11/25 01:51:59;;;;;;;33.00;11.93;;;1.80;99.90;;;;;;5053865;28;20284;-73
2022/11/25 01:54:28;;;;;;;44.23;13.03;;;1.90;99.90;;;;;;5053304;28;20608;-74
2022/11/25 01:57:06;;;;;;;11.57;8.83;;;1.80;99.90;;;;;;5051781;28;20181;-74
2022/11/25 01:59:34;;;;;;;18.03;15.40;;;1.80;99.90;;;;;;5052490;28;20209;-75
2022/11/25 02:02:00;;;;;;;14.63;13.63;;;1.70;99.90;;;;;;5052417;28;20322;-74
2022/11/25 02:04:32;;;;;;;13.87;12.90;;;1.70;99.90;;;;;;5053232;28;20197;-74
2022/11/25 02:07:06;;;;;;;18.13;13.97;;;1.70;99.90;;;;;;5052199;28;20873;-74
2022/11/25 02:09:33;;;;;;;14.10;12.97;;;1.70;99.90;;;;;;5053496;28;20221;-74
2022/11/25 02:12:00;;;;;;;13.57;12.53;;;1.80;99.90;;;;;;5053515;28;20231;-74
2022/11/25 02:14:27;;;;;;;15.97;14.50;;;1.80;99.90;;;;;;5051835;28;20234;-74
2022/11/25 02:16:53;;;;;;;15.07;13.97;;;1.80;99.90;;;;;;5051751;28;20185;-74
2022/11/25 02:19:28;;;;;;;11.97;11.00;;;1.80;99.90;;;;;;5053041;28;20273;-74
2022/11/25 02:21:59;;;;;;;10.80;9.90;;;2.00;99.90;;;;;;5052081;28;20237;-74
2022/11/25 02:24:43;;;;;;;10.67;9.03;;;2.00;99.90;;;;;;5052076;28;20185;-74
2022/11/25 02:27:09;;;;;;;10.83;10.03;;;1.90;99.90;;;;;;5033914;28;20267;-74
2022/11/25 02:29:36;;;;;;;11.33;10.53;;;1.90;99.90;;;;;;5031754;28;20229;-74
2022/11/25 02:32:02;;;;;;;9.40;8.77;;;1.80;99.90;;;;;;5039996;28;20616;-74
2022/11/25 02:34:28;;;;;;;9.43;8.63;;;1.80;99.90;;;;;;5052804;28;20239;-74
2022/11/25 02:36:54;;;;;;;9.00;8.20;;;1.80;99.90;;;;;;5051117;28;20261;-74
2022/11/25 02:39:20;;;;;;;9.00;7.97;;;1.80;99.90;;;;;;5052693;28;20186;-74
2022/11/25 02:41:53;;;;;;;17.23;16.13;;;1.70;99.90;;;;;;5045490;28;20195;-74
2022/11/25 02:44:19;;;;;;;16.90;15.90;;;1.70;99.90;;;;;;5031628;28;20182;-74
2022/11/25 02:46:45;;;;;;;15.50;14.43;;;1.80;99.90;;;;;;5030629;28;20224;-74
2022/11/25 02:49:14;;;;;;;12.07;11.27;;;1.70;99.90;;;;;;5032425;28;20219;-74
2022/11/25 02:51:43;;;;;;;11.03;10.13;;;1.70;99.90;;;;;;5035794;28;20229;-73
2022/11/25 02:54:10;;;;;;;9.73;8.93;;;1.70;99.90;;;;;;5052491;28;20291;-74
2022/11/25 02:56:37;;;;;;;12.17;11.43;;;1.60;99.90;;;;;;5069862;28;20178;-74
2022/11/25 02:59:03;;;;;;;17.03;15.93;;;1.60;99.90;;;;;;5043301;28;20180;-74
2022/11/25 03:01:30;;;;;;;12.47;11.47;;;1.50;99.90;;;;;;5052392;28;20268;-75
2022/11/25 03:03:56;;;;;;;8.73;8.20;;;1.50;99.90;;;;;;5051355;28;20591;-75
2022/11/25 03:06:23;;;;;;;10.73;10.00;;;1.50;99.90;;;;;;5052122;28;20714;-74
2022/11/25 03:08:48;;;;;;;7.97;7.47;;;1.40;99.90;;;;;;5052110;28;20209;-74
2022/11/25 03:11:14;;;;;;;9.07;8.27;;;1.40;99.90;;;;;;5040875;28;20740;-75
2022/11/25 03:13:43;;;;;;;9.03;8.23;;;1.40;99.90;;;;;;5032153;28;20750;-74
2022/11/25 03:16:09;;;;;;;15.97;13.13;;;1.30;99.90;;;;;;5030780;28;20186;-74
2022/11/25 03:18:35;;;;;;;12.47;11.30;;;1.30;99.90;;;;;;5032421;28;20235;-75
2022/11/25 03:21:01;;;;;;;14.03;12.83;;;1.40;99.90;;;;;;5038287;28;21143;-75
2022/11/25 03:23:27;;;;;;;15.97;14.87;;;1.40;99.90;;;;;;5031634;28;20186;-74
2022/11/25 03:25:53;;;;;;;14.53;13.03;;;1.40;99.90;;;;;;5031701;28;20189;-73
2022/11/25 03:28:19;;;;;;;12.73;11.63;;;1.40;99.90;;;;;;5031443;28;20299;-74
2022/11/25 03:30:45;;;;;;;12.07;11.00;;;1.30;99.90;;;;;;5031199;28;20288;-74
2022/11/25 03:33:10;;;;;;;12.27;10.97;;;1.30;99.90;;;;;;5050781;28;20188;-74
2022/11/25 03:35:36;;;;;;;13.23;11.83;;;1.30;99.90;;;;;;5051126;28;20275;-74
2022/11/25 03:38:02;;;;;;;22.17;20.57;;;1.30;99.90;;;;;;5050901;28;20267;-74
2022/11/25 03:40:28;;;;;;;15.23;14.13;;;1.30;99.90;;;;;;5039082;28;20582;-74
2022/11/25 03:42:53;;;;;;;21.50;19.77;;;1.30;99.90;;;;;;5030741;28;20645;-75
2022/11/25 03:45:19;;;;;;;30.40;10.70;;;1.20;99.90;;;;;;5031970;28;20299;-74
2022/11/25 03:47:45;;;;;;;18.03;13.07;;;1.20;99.90;;;;;;5030101;28;20190;-74
2022/11/25 03:50:13;;;;;;;20.57;19.03;;;1.20;99.90;;;;;;5039251;28;20166;-74
2022/11/25 03:52:39;;;;;;;30.17;11.33;;;1.20;99.90;;;;;;5051262;28;20174;-74
2022/11/25 03:55:05;;;;;;;20.80;10.23;;;1.20;99.90;;;;;;5049997;28;20267;-74
2022/11/25 03:57:32;;;;;;;24.57;12.07;;;1.10;99.90;;;;;;5049311;28;20188;-73
2022/11/25 03:59:58;;;;;;;12.93;12.03;;;1.10;99.90;;;;;;5046199;28;20236;-73
2022/11/25 04:02:23;;;;;;;26.57;10.43;;;1.10;99.90;;;;;;5031488;28;20674;-74
2022/11/25 04:04:49;;;;;;;15.97;14.40;;;1.10;99.90;;;;;;5030371;28;20671;-74
2022/11/25 04:07:15;;;;;;;37.43;18.03;;;1.20;99.90;;;;;;5030259;28;20212;-75
2022/11/25 04:09:41;;;;;;;44.00;15.57;;;1.20;99.90;;;;;;5031119;28;20247;-74
2022/11/25 04:14:52;;;;;;;54.17;11.80;;;1.30;99.90;;;;;;5030911;28;20636;-75
2022/11/25 04:17:18;;;;;;;34.97;11.77;;;1.30;99.90;;;;;;5030553;28;20184;-75
2022/11/25 04:19:44;;;;;;;32.97;11.73;;;1.30;99.90;;;;;;5029807;28;20200;-75
2022/11/25 04:22:10;;;;;;;14.50;10.93;;;1.30;99.90;;;;;;5030029;28;20205;-75
2022/11/25 04:24:35;;;;;;;39.97;12.73;;;1.30;99.90;;;;;;5029753;28;20190;-75
2022/11/25 04:27:01;;;;;;;23.70;11.23;;;1.40;99.90;;;;;;5030751;28;20206;-76
2022/11/25 04:29:27;;;;;;;48.53;10.60;;;1.40;99.90;;;;;;5029482;28;20216;-75
2022/11/25 04:31:53;;;;;;;11.17;10.10;;;1.40;99.90;;;;;;5030779;28;20224;-75
2022/11/25 04:34:18;;;;;;;28.90;9.97;;;1.30;99.90;;;;;;5030809;28;20271;-75
2022/11/25 04:36:45;;;;;;;20.67;9.97;;;1.30;99.90;;;;;;5029461;28;20636;-75
2022/11/25 04:39:11;;;;;;;25.37;10.27;;;1.30;99.90;;;;;;5030011;28;20220;-75
2022/11/25 04:41:37;;;;;;;10.87;9.87;;;1.30;99.90;;;;;;5030817;28;20264;-75
2022/11/25 04:44:03;;;;;;;14.27;10.60;;;1.20;99.90;;;;;;5029612;28;20190;-75
2022/11/25 04:46:36;;;;;;;41.53;10.47;;;1.30;99.90;;;;;;5030218;28;20184;-75
2022/11/25 04:49:03;;;;;;;11.13;10.13;;;1.20;99.90;;;;;;5036080;28;20199;-75
2022/11/25 04:51:28;;;;;;;11.83;10.73;;;1.20;99.90;;;;;;5045871;28;20197;-75
2022/11/25 04:53:54;;;;;;;12.70;11.43;;;1.20;99.90;;;;;;5047423;28;20185;-75
2022/11/25 04:56:20;;;;;;;12.33;11.30;;;1.30;99.90;;;;;;5049393;28;20188;-75
2022/11/25 05:01:32;;;;;;;11.47;10.40;;;1.30;99.90;;;;;;5050611;28;20255;-76
2022/11/25 05:03:57;;;;;;;11.77;10.83;;;1.30;99.90;;;;;;5048464;28;20319;-75
2022/11/25 05:06:24;;;;;;;11.97;11.07;;;1.40;99.90;;;;;;5034613;28;20183;-76
2022/11/25 05:08:50;;;;;;;11.90;10.80;;;1.40;99.90;;;;;;5030253;28;20240;-76
2022/11/25 05:11:16;;;;;;;12.47;11.40;;;1.40;99.90;;;;;;5033445;28;20202;-75
2022/11/25 05:13:42;;;;;;;11.67;10.57;;;1.40;99.90;;;;;;5034458;28;20177;-76
2022/11/25 05:16:08;;;;;;;12.03;11.10;;;1.40;99.90;;;;;;5046472;28;20204;-75
2022/11/25 05:18:34;;;;;;;12.20;11.30;;;1.40;99.90;;;;;;5035222;28;20680;-75
2022/11/25 05:21:01;;;;;;;13.60;12.33;;;1.40;99.90;;;;;;5034295;28;20237;-76
2022/11/25 05:23:27;;;;;;;12.50;11.40;;;1.40;99.90;;;;;;5033046;28;20185;-75
2022/11/25 05:25:59;;;;;;;12.23;11.13;;;1.30;99.90;;;;;;5033567;28;20221;-75
2022/11/25 05:28:25;;;;;;;16.40;15.00;;;1.30;99.90;;;;;;5034864;28;20260;-75
2022/11/25 05:30:51;;;;;;;18.87;17.57;;;1.30;99.90;;;;;;5044833;28;20198;-76
2022/11/25 05:33:17;;;;;;;19.90;18.60;;;1.30;99.90;;;;;;5033572;28;20179;-75
2022/11/25 05:35:42;;;;;;;21.63;19.70;;;1.20;99.90;;;;;;5033122;28;20342;-75
2022/11/25 05:38:08;;;;;;;19.67;18.47;;;1.20;99.90;;;;;;5032350;28;20186;-75
2022/11/25 05:40:34;;;;;;;19.97;18.57;;;1.10;99.90;;;;;;5034140;28;20286;-75
2022/11/25 05:43:00;;;;;;;16.80;15.30;;;1.00;99.90;;;;;;5032746;28;20189;-75
2022/11/25 05:45:26;;;;;;;15.57;14.47;;;1.00;99.90;;;;;;5034490;28;20202;-75
2022/11/25 05:47:52;;;;;;;22.23;20.73;;;0.90;99.90;;;;;;5033481;28;20908;-75
2022/11/25 05:50:18;;;;;;;13.63;12.07;;;0.90;99.90;;;;;;5033792;28;20672;-75
2022/11/25 05:52:43;;;;;;;14.70;13.30;;;0.80;99.90;;;;;;5032263;28;20750;-76
2022/11/25 05:55:09;;;;;;;13.93;12.70;;;0.80;99.90;;;;;;5032462;28;20187;-75
2022/11/25 05:57:35;;;;;;;13.53;12.30;;;0.90;99.90;;;;;;5033281;28;20237;-75
2022/11/25 06:00:01;;;;;;;13.70;12.40;;;1.00;99.90;;;;;;5048859;28;20228;-75
2022/11/25 06:02:26;;;;;;;19.27;17.73;;;1.00;99.90;;;;;;5056096;23;20232;-73
2022/11/25 06:04:52;;;;;;;15.63;14.00;;;1.10;99.90;;;;;;5036025;28;20190;-74
2022/11/25 06:07:18;;;;;;;16.97;15.67;;;1.10;99.90;;;;;;5033232;28;20190;-75
2022/11/25 06:09:43;;;;;;;14.37;12.97;;;1.10;99.90;;;;;;5030987;28;20242;-75
2022/11/25 06:12:09;;;;;;;15.57;11.67;;;1.10;99.90;;;;;;5033275;28;20210;-75
2022/11/25 06:14:35;;;;;;;13.90;12.53;;;1.10;99.90;;;;;;5031150;28;20618;-76
2022/11/25 06:17:01;;;;;;;13.13;11.93;;;1.10;99.90;;;;;;5032063;28;20195;-76
2022/11/25 06:19:26;;;;;;;12.90;11.67;;;1.10;99.90;;;;;;5032706;28;20633;-76
2022/11/25 06:21:52;;;;;;;11.53;10.43;;;1.10;99.90;;;;;;5029902;28;20203;-74
2022/11/25 06:24:18;;;;;;;11.13;10.00;;;1.10;99.90;;;;;;5031657;28;20196;-77
2022/11/25 06:26:44;;;;;;;10.37;9.57;;;1.10;99.90;;;;;;5032394;28;20188;-74
2022/11/25 06:29:09;;;;;;;10.57;9.77;;;1.00;99.90;;;;;;5033072;28;20198;-73
2022/11/25 06:31:35;;;;;;;10.30;9.40;;;1.00;99.90;;;;;;5031631;28;20674;-74
2022/11/25 06:34:01;;;;;;;11.17;10.27;;;1.00;99.90;;;;;;5032618;28;20171;-77
2022/11/25 06:36:26;;;;;;;10.60;9.53;;;1.00;99.90;;;;;;5032884;28;20217;-76
2022/11/25 06:38:53;;;;;;;12.20;11.20;;;0.90;99.90;;;;;;5032615;28;20299;-76
2022/11/25 06:41:20;;;;;;;12.10;11.10;;;0.90;99.90;;;;;;5032440;28;20213;-76
2022/11/25 06:43:46;;;;;;;18.53;17.23;;;0.90;99.90;;;;;;5031711;28;20189;-76
2022/11/25 06:46:17;;;;;;;15.00;13.77;;;0.80;99.90;;;;;;5032547;28;20194;-74
2022/11/25 06:48:43;;;;;;;12.77;11.63;;;0.80;99.90;;;;;;5031965;28;20221;-74
2022/11/25 06:51:11;;;;;;;14.57;13.37;;;0.80;99.90;;;;;;5031459;28;20301;-69
2022/11/25 06:53:38;;;;;;;18.63;17.23;;;0.70;99.90;;;;;;5032179;28;20259;-68
2022/11/25 06:56:14;;;;;;;13.03;11.93;;;0.80;99.90;;;;;;5032391;28;20298;-71
2022/11/25 06:58:41;;;;;;;12.67;11.47;;;0.80;99.90;;;;;;5032062;28;20187;-70
2022/11/25 07:01:18;;;;;;;11.87;10.83;;;0.90;99.90;;;;;;5031137;28;20259;-69
2022/11/25 07:03:45;;;;;;;12.30;11.23;;;0.90;99.90;;;;;;5032382;28;20275;-71
2022/11/25 07:06:15;;;;;;;12.20;10.90;;;1.00;99.90;;;;;;5031130;28;20183;-72
2022/11/25 07:08:42;;;;;;;11.13;10.23;;;1.00;99.90;;;;;;5031360;28;20224;-72
2022/11/25 07:11:21;;;;;;;12.07;10.97;;;1.00;99.90;;;;;;5031795;28;20199;-71
2022/11/25 07:13:50;;;;;;;12.97;11.77;;;1.00;99.90;;;;;;5032086;28;20182;-72
2022/11/25 07:16:16;;;;;;;12.43;11.27;;;1.00;99.90;;;;;;5030660;28;20265;-71
2022/11/25 07:18:41;;;;;;;13.03;11.73;;;1.00;99.90;;;;;;5031906;28;20266;-72
2022/11/25 07:21:12;;;;;;;13.40;12.20;;;1.00;99.90;;;;;;5030567;28;20221;-71
2022/11/25 07:23:39;;;;;;;16.30;14.87;;;1.00;99.90;;;;;;5032145;28;20187;-72
2022/11/25 07:26:17;;;;;;;27.67;25.70;;;1.00;99.90;;;;;;5031904;28;20189;-72
2022/11/25 07:28:44;;;;;;;26.97;25.07;;;1.10;99.90;;;;;;5031549;28;20224;-72
2022/11/25 07:31:24;;;;;;;20.87;19.33;;;1.10;99.90;;;;;;5030581;28;20202;-74
2022/11/25 07:33:52;;;;;;;20.00;18.53;;;1.20;99.90;;;;;;5033146;28;20214;-73
2022/11/25 07:36:18;;;;;;;19.10;17.63;;;1.20;99.90;;;;;;5040309;28;20179;-72
2022/11/25 07:38:43;;;;;;;17.90;16.00;;;1.30;99.90;;;;;;5045207;28;20196;-73
2022/11/25 07:41:14;;;;;;;15.33;13.97;;;1.40;99.90;;;;;;5034810;28;20213;-73
2022/11/25 07:43:44;;;;;;;15.00;12.43;;;1.50;99.90;;;;;;5034419;28;20187;-73
2022/11/25 07:46:17;;;;;;;14.27;12.97;;;1.80;99.90;;;;;;5033953;28;20697;-74
2022/11/25 07:48:44;;;;;;;14.93;13.53;;;2.20;99.90;;;;;;5031342;28;20589;-74
2022/11/25 07:51:25;;;;;;;14.70;13.27;;;2.50;99.90;;;;;;5031330;28;20289;-73
2022/11/25 07:53:53;;;;;;;28.07;26.27;;;2.60;99.90;;;;;;5030361;28;20273;-73
2022/11/25 07:56:18;;;;;;;29.30;27.10;;;2.70;99.90;;;;;;5031579;28;20181;-73
2022/11/25 07:58:44;;;;;;;17.50;15.73;;;3.20;99.90;;;;;;5031400;28;20335;-73
2022/11/25 08:01:11;;;;;;;16.80;15.40;;;3.60;99.90;;;;;;5030428;28;20229;-74
2022/11/25 08:03:39;;;;;;;19.23;15.40;;;4.00;99.90;;;;;;5031787;28;20206;-74
2022/11/25 08:06:08;;;;;;;28.37;26.47;;;4.40;99.90;;;;;;5031400;28;20182;-74
2022/11/25 08:08:35;;;;;;;18.83;17.17;;;4.70;99.90;;;;;;5030997;28;20229;-74
2022/11/25 08:11:06;;;;;;;22.13;17.77;;;4.90;99.90;;;;;;5031087;28;20245;-73
2022/11/25 08:13:32;;;;;;;20.43;13.83;;;5.30;99.90;;;;;;5031309;28;20179;-74
2022/11/25 08:15:59;;;;;;;35.20;31.53;;;5.60;99.90;;;;;;5029981;28;20266;-73
2022/11/25 08:18:25;;;;;;;35.33;22.97;;;5.90;99.90;;;;;;5029376;28;20186;-74
2022/11/25 08:20:50;;;;;;;24.00;19.70;;;6.20;99.90;;;;;;5031220;28;20203;-74
2022/11/25 08:23:16;;;;;;;18.60;12.50;;;6.40;99.90;;;;;;5031352;28;20183;-74
2022/11/25 08:25:42;;;;;;;13.40;11.97;;;6.20;99.90;;;;;;5031245;28;20182;-74
2022/11/25 08:28:08;;;;;;;17.73;13.10;;;5.90;99.90;;;;;;5030753;28;20558;-74
2022/11/25 08:30:34;;;;;;;11.27;9.73;;;5.80;99.90;;;;;;5030768;28;20171;-74
2022/11/25 08:33:00;;;;;;;10.73;9.70;;;5.80;99.90;;;;;;5031199;28;20175;-73
2022/11/25 08:35:26;;;;;;;19.90;18.50;;;5.60;99.90;;;;;;5031098;28;20178;-74
2022/11/25 08:37:53;;;;;;;17.53;16.13;;;5.20;99.90;;;;;;5029465;28;20202;-70
2022/11/25 08:40:18;;;;;;;15.93;14.47;;;4.90;99.90;;;;;;5031227;28;20175;-73
2022/11/25 08:42:44;;;;;;;17.63;12.70;;;4.80;99.90;;;;;;5030914;28;20206;-73
2022/11/25 08:45:11;;;;;;;13.80;10.10;;;4.60;99.90;;;;;;5034558;28;20678;-73
2022/11/25 08:47:37;;;;;;;11.73;10.00;;;4.50;99.90;;;;;;5034868;28;20183;-73
2022/11/25 08:50:07;;;;;;;11.67;10.10;;;4.40;99.90;;;;;;5035159;28;20211;-73
2022/11/25 08:52:33;;;;;;;13.30;11.90;;;4.50;99.90;;;;;;5035190;28;20199;-74
2022/11/25 08:54:58;;;;;;;14.90;10.83;;;4.50;99.90;;;;;;5035085;28;20179;-73
2022/11/25 08:57:24;;;;;;;12.23;11.07;;;4.60;99.90;;;;;;5035685;28;20185;-73
2022/11/25 08:59:50;;;;;;;20.47;18.97;;;4.40;99.90;;;;;;5036812;28;20206;-73
2022/11/25 09:02:16;;;;;;;34.47;32.27;;;4.30;99.90;;;;;;5036660;28;20232;-76
2022/11/25 09:04:42;;;;;;;16.27;14.87;;;4.20;99.90;;;;;;5034925;28;20223;-72
2022/11/25 09:07:08;;;;;;;9.97;8.97;;;4.10;99.90;;;;;;5034709;28;20659;-73
2022/11/25 09:09:34;;;;;;;16.20;12.20;;;4.10;99.90;;;;;;5034750;28;20246;-73
2022/11/25 09:11:59;;;;;;;12.93;11.63;;;4.00;99.90;;;;;;5034490;28;20230;-73
2022/11/25 09:14:25;;;;;;;11.73;10.70;;;4.10;99.90;;;;;;5033452;28;20175;-74
2022/11/25 09:16:51;;;;;;;14.87;10.50;;;4.20;99.90;;;;;;5034352;28;20179;-74
2022/11/25 09:19:18;;;;;;;11.70;10.50;;;4.30;99.90;;;;;;5033482;28;20183;-73
2022/11/25 09:21:44;;;;;;;13.87;10.90;;;4.40;99.90;;;;;;5034623;28;20206;-73
2022/11/25 09:24:09;;;;;;;12.47;10.40;;;4.60;99.90;;;;;;5034824;28;20194;-74
2022/11/25 09:26:38;;;;;;;14.60;10.37;;;4.70;99.90;;;;;;5038029;28;20187;-72
2022/11/25 09:29:04;;;;;;;12.80;11.40;;;4.90;99.90;;;;;;5046363;28;20214;-73
2022/11/25 09:31:30;;;;;;;13.33;11.57;;;5.00;99.90;;;;;;5033354;28;20300;-74
2022/11/25 09:33:56;;;;;;;13.70;11.63;;;5.00;99.90;;;;;;5033203;28;20558;-74
2022/11/25 09:36:23;;;;;;;12.67;11.30;;;5.00;99.90;;;;;;5034349;28;20178;-75
2022/11/25 09:38:50;;;;;;;12.30;11.07;;;5.10;99.90;;;;;;5036846;28;20178;-73
2022/11/25 09:48:07;;;;;;;12.53;11.33;;;5.80;99.90;;;;;;5039169;28;20243;-78
2022/11/25 09:50:36;;;;;;;12.77;11.67;;;6.00;99.90;;;;;;5043284;28;20214;-78
2022/11/25 09:53:24;;;;;;;15.93;14.50;;;6.20;99.90;;;;;;5035971;28;20183;-78
2022/11/25 09:55:57;;;;;;;13.87;12.73;;;6.50;99.90;;;;;;5034292;28;20206;-75
2022/11/25 09:58:34;;;;;;;11.80;9.83;;;6.90;99.90;;;;;;5033907;28;20211;-78
2022/11/25 10:01:05;;;;;;;18.50;16.93;;;7.20;99.90;;;;;;5032754;28;20206;-70
2022/11/25 10:03:41;;;;;;;31.13;28.73;;;7.40;99.90;;;;;;5033941;28;20187;-70
2022/11/25 10:06:19;;;;;;;28.03;26.13;;;8.00;99.90;;;;;;5033783;28;20210;-70
2022/11/25 10:09:08;;;;;;;13.13;11.87;;;8.80;99.90;;;;;;5032987;28;20206;-70
2022/11/25 10:11:37;;;;;;;18.77;17.33;;;9.40;99.90;;;;;;5034403;28;20644;-77
2022/11/25 10:14:28;;;;;;;13.50;12.27;;;9.50;99.90;;;;;;5033732;28;20310;-71
2022/11/25 10:17:02;;;;;;;12.87;11.77;;;9.60;99.90;;;;;;5023016;28;20183;-71
2022/11/25 10:19:47;;;;;;;12.00;9.23;;;9.50;99.90;;;;;;5033340;28;20256;-72
2022/11/25 10:22:23;;;;;;;8.87;7.97;;;9.30;99.90;;;;;;5031754;28;20211;-71
2022/11/25 10:24:52;;;;;;;9.80;9.00;;;8.90;99.90;;;;;;5033095;28;20651;-71
2022/11/25 10:27:26;;;;;;;10.97;9.97;;;8.40;99.90;;;;;;5031631;28;20190;-79
2022/11/25 10:30:13;;;;;;;10.30;8.57;;;8.20;99.90;;;;;;5033204;28;20237;-71
2022/11/25 10:32:42;;;;;;;10.77;9.87;;;8.00;99.90;;;;;;5031968;28;20552;-73
2022/11/25 10:35:20;;;;;;;11.50;10.47;;;7.80;99.90;;;;;;5033762;28;20245;-72
2022/11/25 10:37:53;;;;;;;16.10;14.60;;;7.80;99.90;;;;;;5032802;28;20312;-73
2022/11/25 10:40:20;;;;;;;14.93;12.83;;;7.60;99.90;;;;;;5035670;28;20193;-78
2022/11/25 10:42:46;;;;;;;15.40;13.87;;;7.50;99.90;;;;;;5032514;28;20627;-70
2022/11/25 10:45:11;;;;;;;11.37;10.37;;;7.50;99.90;;;;;;5031403;28;20214;-70
2022/11/25 10:48:16;;;;;;;9.83;8.80;;;7.40;99.90;;;;;;5031240;28;20179;-70
2022/11/25 10:51:01;;;;;;;12.63;9.70;;;7.40;99.90;;;;;;5021986;28;20578;-71
2022/11/25 10:53:29;;;;;;;21.73;14.67;;;7.30;99.90;;;;;;5033045;28;20190;-71
2022/11/25 10:56:03;;;;;;;18.63;17.30;;;7.30;99.90;;;;;;5031544;28;20186;-71
2022/11/25 10:58:37;;;;;;;20.20;18.70;;;7.40;99.90;;;;;;5032675;28;20183;-71
2022/11/25 11:01:24;;;;;;;23.13;21.47;;;7.60;99.90;;;;;;5032877;28;20210;-71
2022/11/25 11:04:04;;;;;;;19.43;17.60;;;7.70;99.90;;;;;;5032875;28;20215;-71
2022/11/25 11:06:33;;;;;;;12.77;11.47;;;7.70;99.90;;;;;;5031974;28;20594;-71
2022/11/25 11:08:59;;;;;;;9.97;8.43;;;7.70;99.90;;;;;;5031932;28;20527;-70
2022/11/25 11:11:25;;;;;;;11.20;9.97;;;7.70;99.90;;;;;;5031052;28;20264;-70
2022/11/25 11:13:58;;;;;;;21.60;20.27;;;7.70;99.90;;;;;;5030963;28;20674;-71
2022/11/25 11:16:31;;;;;;;40.00;37.67;;;7.60;99.90;;;;;;5047984;28;20183;-71
2022/11/25 11:18:57;;;;;;;27.13;25.40;;;7.50;99.90;;;;;;5043505;28;20697;-70
2022/11/25 11:21:43;;;;;;;13.27;11.70;;;7.50;99.90;;;;;;5039128;28;20546;-70
2022/11/25 11:24:30;;;;;;;10.10;9.10;;;7.50;99.90;;;;;;5050478;28;20309;-70
2022/11/25 11:27:25;;;;;;;10.53;9.53;;;7.50;99.90;;;;;;5038782;28;20652;-71
2022/11/25 11:30:20;;;;;;;10.23;9.23;;;7.60;99.90;;;;;;5031554;28;20215;-70
2022/11/25 11:33:25;;;;;;;11.80;8.80;;;7.60;99.90;;;;;;5031843;28;20203;-77
2022/11/25 11:36:23;;;;;;;14.77;8.77;;;7.60;99.90;;;;;;5030264;28;20179;-72
2022/11/25 11:38:52;;;;;;;12.40;9.47;;;7.60;99.90;;;;;;5027302;28;20612;-73
2022/11/25 11:41:38;;;;;;;10.97;9.83;;;7.60;99.90;;;;;;5031099;28;20688;-73
2022/11/25 11:44:19;;;;;;;17.07;15.57;;;7.50;99.90;;;;;;5030188;28;20714;-73
2022/11/25 11:47:06;;;;;;;24.80;23.20;;;7.50;99.90;;;;;;5031101;28;20273;-73
2022/11/25 11:49:44;;;;;;;23.93;22.13;;;7.40;99.90;;;;;;5031189;28;20222;-73
2022/11/25 11:52:27;;;;;;;23.03;21.23;;;7.40;99.90;;;;;;5031517;28;20214;-74
2022/11/25 11:55:00;;;;;;;22.37;20.43;;;7.40;99.90;;;;;;5031130;28;20180;-71
2022/11/25 11:57:26;;;;;;;20.77;18.70;;;7.40;99.90;;;;;;5030576;28;20179;-69
2022/11/25 11:59:54;;;;;;;22.57;20.57;;;7.40;99.90;;;;;;5031127;28;20175;-71
2022/11/25 12:02:48;;;;;;;24.73;22.63;;;7.50;99.90;;;;;;5050201;23;20320;-69
2022/11/25 12:05:20;;;;;;;35.13;31.73;;;7.50;99.90;;;;;;5030361;28;20221;-70
2022/11/25 12:08:21;;;;;;;35.60;32.70;;;7.60;99.90;;;;;;5030363;28;20178;-70
2022/11/25 12:10:53;;;;;;;28.27;26.00;;;7.60;99.90;;;;;;5010128;28;20195;-70
2022/11/25 12:13:22;;;;;;;70.53;66.20;;;7.70;99.90;;;;;;5010141;28;20211;-70
2022/11/25 12:15:56;;;;;;;28.67;26.77;;;7.70;99.90;;;;;;5011190;28;20188;-70
2022/11/25 12:18:40;;;;;;;32.80;30.77;;;7.70;99.90;;;;;;5010306;28;20237;-70
2022/11/25 12:21:26;;;;;;;29.57;27.37;;;7.80;99.90;;;;;;5010252;28;20227;-70
2022/11/25 12:24:21;;;;;;;25.47;23.67;;;7.80;99.90;;;;;;5018707;28;20178;-71
2022/11/25 12:27:07;;;;;;;21.30;19.63;;;7.80;99.90;;;;;;5030470;28;20183;-69
2022/11/25 12:29:42;;;;;;;25.93;24.03;;;7.80;99.90;;;;;;5035465;28;20248;-70
2022/11/25 12:32:20;;;;;;;33.23;30.93;;;7.80;99.90;;;;;;5030843;28;20267;-70
2022/11/25 12:35:08;;;;;;;37.23;34.37;;;7.80;99.90;;;;;;5031483;28;20198;-71
2022/11/25 12:37:49;;;;;;;25.60;23.33;;;7.70;99.90;;;;;;4992905;28;20597;-70
2022/11/25 12:40:32;;;;;;;24.50;22.17;;;7.70;99.90;;;;;;5010933;28;20652;-69
2022/11/25 12:43:14;;;;;;;26.23;23.73;;;7.70;99.90;;;;;;5009629;28;20211;-70
2022/11/25 12:45:42;;;;;;;33.10;30.07;;;7.80;99.90;;;;;;5014745;28;20731;-71
2022/11/25 12:48:10;;;;;;;30.17;27.33;;;7.80;99.90;;;;;;5024029;28;20322;-70
2022/11/25 12:51:04;;;;;;;30.70;28.30;;;7.80;99.90;;;;;;5010983;28;20266;-70
2022/11/25 12:54:05;;;;;;;33.50;30.50;;;7.80;99.90;;;;;;5009716;28;20186;-70
2022/11/25 12:56:44;;;;;;;33.00;30.53;;;7.90;99.90;;;;;;5005526;28;20214;-70
2022/11/25 12:59:26;;;;;;;33.93;30.80;;;7.90;99.90;;;;;;5010644;28;20203;-70
2022/11/25 13:02:13;;;;;;;37.07;34.37;;;8.00;99.90;;;;;;5010629;28;20238;-70
2022/11/25 13:05:24;;;;;;;26.97;24.67;;;8.00;99.90;;;;;;5012988;28;20581;-71
2022/11/25 13:08:19;;;;;;;25.83;23.43;;;8.00;99.90;;;;;;5035069;28;20184;-70